Time;durP1;ratioP1;P1;durP2;ratioP2;P2;SDS_P1;SDS_P2;PMS_P1;PMS_P2;Temp;Humidity;BMP_temperature;BMP_pressure;BME280_temperature;BME280_humidity;BME280_pressure;Samples;Min_cycle;Max_cycle;Signal;HPM_P1;HPM_P2
2024/02/03 00:00:37;;;;;;;;;;;;;;;;;;5093261;28;20378;-86
2024/02/03 00:03:03;;;;;;;;;;;;;;;;;;5091738;28;20176;-84
2024/02/03 00:05:28;;;;;;;;;;;;;;;;;;5094669;28;19912;-86
2024/02/03 00:07:54;;;;;;;;;;;;;;;;;;5084657;28;20580;-87
2024/02/03 00:10:20;;;;;;;;;;;;;;;;;;5092764;28;19908;-86
2024/02/03 00:12:46;;;;;;;;;;;;;;;;;;5089553;28;19912;-87
2024/02/03 00:15:12;;;;;;;;;;;;;;;;;;5073503;28;19908;-87
2024/02/03 00:17:39;;;;;;;;;;;;;;;;;;5090426;28;20355;-87
2024/02/03 00:20:05;;;;;;;;;;;;;;;;;;5086578;28;19909;-86
2024/02/03 00:22:31;;;;;;;;;;;;;;;;;;5097919;28;19913;-87
2024/02/03 00:24:57;;;;;;;;;;;;;;;;;;5086439;28;19924;-86
2024/02/03 00:27:23;;;;;;;;;;;;;;;;;;5093929;28;20331;-86
2024/02/03 00:29:48;;;;;;;;;;;;;;;;;;5084274;28;19927;-86
2024/02/03 00:32:14;;;;;;;;;;;;;;;;;;5091681;28;19916;-87
2024/02/03 00:34:40;;;;;;;;;;;;;;;;;;5093390;28;20581;-87
2024/02/03 00:37:06;;;;;;;;;;;;;;;;;;5097467;28;19923;-88
2024/02/03 00:39:32;;;;;;;;;;;;;;;;;;5095940;28;20007;-87
2024/02/03 00:41:58;;;;;;;;;;;;;;;;;;5095869;28;19920;-86
2024/02/03 00:44:23;;;;;;;;;;;;;;;;;;5095929;28;19916;-87
2024/02/03 00:46:49;;;;;;;;;;;;;;;;;;5098658;28;19912;-87
2024/02/03 00:49:15;;;;;;;;;;;;;;;;;;5096679;28;19926;-89
2024/02/03 00:51:41;;;;;;;;;;;;;;;;;;5098825;28;19923;-89
2024/02/03 00:54:07;;;;;;;;;;;;;;;;;;5099940;28;19912;-87
2024/02/03 00:56:34;;;;;;;;;;;;;;;;;;5077009;28;19923;-87
2024/02/03 00:59:00;;;;;;;;;;;;;;;;;;5095923;28;19928;-88
2024/02/03 01:01:25;;;;;;;;;;;;;;;;;;5084732;28;19920;-87
2024/02/03 01:03:51;;;;;;;;;;;;;;;;;;5094982;28;19959;-87
2024/02/03 01:06:17;;;;;;;;;;;;;;;;;;5082646;28;19976;-88
2024/02/03 01:08:44;;;;;;;;;;;;;;;;;;5101154;28;19955;-87
2024/02/03 01:11:10;;;;;;;;;;;;;;;;;;5092905;28;19912;-85
2024/02/03 01:13:36;;;;;;;;;;;;;;;;;;5086302;28;19963;-88
2024/02/03 01:16:02;;;;;;;;;;;;;;;;;;5096962;28;19913;-90
2024/02/03 01:18:28;;;;;;;;;;;;;;;;;;5100710;28;19908;-87
2024/02/03 01:20:53;;;;;;;;;;;;;;;;;;5098129;28;19954;-90
2024/02/03 01:23:19;;;;;;;;;;;;;;;;;;5093673;28;19919;-89
2024/02/03 01:25:45;;;;;;;;;;;;;;;;;;5094278;28;20004;-89
2024/02/03 01:28:11;;;;;;;;;;;;;;;;;;5081041;28;20010;-88
2024/02/03 01:30:37;;;;;;;;;;;;;;;;;;5092607;28;20259;-88
2024/02/03 01:33:03;;;;;;;;;;;;;;;;;;5093301;28;19939;-88
2024/02/03 01:35:30;;;;;;;;;;;;;;;;;;5094152;28;19919;-90
2024/02/03 01:37:56;;;;;;;;;;;;;;;;;;5097068;28;19915;-90
2024/02/03 01:40:21;;;;;;;;;;;;;;;;;;5096475;28;19912;-89
2024/02/03 01:42:47;;;;;;;;;;;;;;;;;;5094608;28;19953;-89
2024/02/03 01:45:13;;;;;;;;;;;;;;;;;;5095078;28;19924;-89
2024/02/03 01:47:39;;;;;;;;;;;;;;;;;;5095113;28;19908;-89
2024/02/03 01:50:05;;;;;;;;;;;;;;;;;;5100734;28;19968;-88
2024/02/03 01:52:31;;;;;;;;;;;;;;;;;;5102154;28;20294;-89
2024/02/03 01:54:56;;;;;;;;;;;;;;;;;;5094795;28;19951;-88
2024/02/03 01:57:23;;;;;;;;;;;;;;;;;;5093838;28;19912;-88
2024/02/03 01:59:49;;;;;;;;;;;;;;;;;;5083641;28;20267;-88
2024/02/03 02:02:14;;;;;;;;;;;;;;;;;;5092049;28;19965;-88
2024/02/03 02:04:40;;;;;;;;;;;;;;;;;;5094845;28;19943;-88
2024/02/03 02:07:06;;;;;;;;;;;;;;;;;;5095654;28;19935;-88
2024/02/03 02:09:32;;;;;;;;;;;;;;;;;;5091984;28;19916;-88
2024/02/03 02:11:58;;;;;;;;;;;;;;;;;;5085071;28;20438;-89
2024/02/03 02:14:24;;;;;;;;;;;;;;;;;;5091413;28;20360;-88
2024/02/03 02:16:50;;;;;;;;;;;;;;;;;;5094498;28;20011;-89
2024/02/03 02:19:16;;;;;;;;;;;;;;;;;;5093116;28;20691;-88
2024/02/03 02:21:42;;;;;;;;;;;;;;;;;;5098633;28;19948;-89
2024/02/03 02:24:08;;;;;;;;;;;;;;;;;;5096680;28;20390;-89
2024/02/03 02:26:34;;;;;;;;;;;;;;;;;;5096389;28;19912;-89
2024/02/03 02:28:59;;;;;;;;;;;;;;;;;;5090370;28;20468;-90
2024/02/03 02:31:26;;;;;;;;;;;;;;;;;;5094967;28;19912;-90
2024/02/03 02:33:51;;;;;;;;;;;;;;;;;;5086109;28;19915;-90
2024/02/03 02:36:17;;;;;;;;;;;;;;;;;;5093970;28;19912;-87
2024/02/03 02:38:43;;;;;;;;;;;;;;;;;;5094956;28;19917;-89
2024/02/03 02:41:09;;;;;;;;;;;;;;;;;;5089193;28;20303;-90
2024/02/03 02:43:35;;;;;;;;;;;;;;;;;;5099315;28;19908;-86
2024/02/03 02:46:01;;;;;;;;;;;;;;;;;;5090950;28;19916;-88
2024/02/03 02:48:27;;;;;;;;;;;;;;;;;;5083212;28;19912;-85
2024/02/03 02:50:53;;;;;;;;;;;;;;;;;;5098890;28;19912;-88
2024/02/03 02:53:19;;;;;;;;;;;;;;;;;;5095888;28;19991;-88
2024/02/03 02:55:45;;;;;;;;;;;;;;;;;;5096110;28;19908;-90
2024/02/03 02:58:11;;;;;;;;;;;;;;;;;;5095886;28;19908;-88
2024/02/03 03:00:36;;;;;;;;;;;;;;;;;;5091069;28;19969;-90
2024/02/03 03:03:02;;;;;;;;;;;;;;;;;;5094082;28;19908;-88
2024/02/03 03:05:28;;;;;;;;;;;;;;;;;;5082710;28;20411;-88
2024/02/03 03:07:54;;;;;;;;;;;;;;;;;;5088061;28;19996;-89
2024/02/03 03:10:20;;;;;;;;;;;;;;;;;;5087624;28;20351;-89
2024/02/03 03:12:46;;;;;;;;;;;;;;;;;;5095529;28;19912;-89
2024/02/03 03:15:12;;;;;;;;;;;;;;;;;;5093104;28;20355;-88
2024/02/03 03:17:38;;;;;;;;;;;;;;;;;;5090127;28;19999;-89
2024/02/03 03:20:04;;;;;;;;;;;;;;;;;;5093743;28;19959;-89
2024/02/03 03:22:30;;;;;;;;;;;;;;;;;;5093028;28;19947;-88
2024/02/03 03:24:56;;;;;;;;;;;;;;;;;;5093359;28;19920;-88
2024/02/03 03:27:22;;;;;;;;;;;;;;;;;;5094785;28;19912;-88
2024/02/03 03:29:47;;;;;;;;;;;;;;;;;;5086497;28;20362;-88
2024/02/03 03:32:13;;;;;;;;;;;;;;;;;;5098204;28;19927;-90
2024/02/03 03:34:39;;;;;;;;;;;;;;;;;;5100887;28;19955;-88
2024/02/03 03:37:05;;;;;;;;;;;;;;;;;;5097520;28;19944;-89
2024/02/03 03:39:31;;;;;;;;;;;;;;;;;;5080803;28;20354;-89
2024/02/03 03:41:57;;;;;;;;;;;;;;;;;;5091972;28;20313;-89
2024/02/03 03:44:23;;;;;;;;;;;;;;;;;;5073965;28;20338;-89
2024/02/03 03:46:49;;;;;;;;;;;;;;;;;;5092764;28;19916;-88
2024/02/03 03:49:15;;;;;;;;;;;;;;;;;;5093006;28;19920;-89
2024/02/03 03:51:41;;;;;;;;;;;;;;;;;;5075961;28;19908;-87
2024/02/03 03:54:07;;;;;;;;;;;;;;;;;;5097211;28;19912;-87
2024/02/03 03:56:32;;;;;;;;;;;;;;;;;;5096741;28;20456;-87
2024/02/03 03:58:59;;;;;;;;;;;;;;;;;;5091917;28;20002;-87
2024/02/03 04:01:25;;;;;;;;;;;;;;;;;;5098337;28;19923;-87
2024/02/03 04:03:51;;;;;;;;;;;;;;;;;;5079884;28;19912;-88
2024/02/03 04:06:16;;;;;;;;;;;;;;;;;;5097362;28;20542;-89
2024/02/03 04:08:42;;;;;;;;;;;;;;;;;;5098933;28;20017;-88
2024/02/03 04:11:08;;;;;;;;;;;;;;;;;;5097320;28;19959;-87
2024/02/03 04:13:34;;;;;;;;;;;;;;;;;;5093359;28;20389;-87
2024/02/03 04:16:00;;;;;;;;;;;;;;;;;;5095861;28;19966;-88
2024/02/03 04:18:26;;;;;;;;;;;;;;;;;;5100800;28;19908;-88
2024/02/03 04:20:52;;;;;;;;;;;;;;;;;;5096976;28;19947;-88
2024/02/03 04:23:17;;;;;;;;;;;;;;;;;;5096818;28;19968;-89
2024/02/03 04:25:43;;;;;;;;;;;;;;;;;;5099260;28;20393;-87
2024/02/03 04:28:09;;;;;;;;;;;;;;;;;;5095956;28;19920;-88
2024/02/03 04:30:35;;;;;;;;;;;;;;;;;;5092943;28;19912;-87
2024/02/03 04:33:01;;;;;;;;;;;;;;;;;;5096767;28;19969;-87
2024/02/03 04:35:27;;;;;;;;;;;;;;;;;;5094521;28;19967;-87
2024/02/03 04:37:52;;;;;;;;;;;;;;;;;;5097570;28;20626;-87
2024/02/03 04:40:18;;;;;;;;;;;;;;;;;;5101945;28;19995;-88
2024/02/03 04:42:44;;;;;;;;;;;;;;;;;;5096218;28;19920;-86
2024/02/03 04:45:10;;;;;;;;;;;;;;;;;;5095244;28;19916;-88
2024/02/03 04:47:36;;;;;;;;;;;;;;;;;;5099442;28;19953;-88
2024/02/03 04:50:04;;;;;;;;;;;;;;;;;;5089495;28;19908;-86
2024/02/03 04:52:29;;;;;;;;;;;;;;;;;;5082884;28;20289;-87
2024/02/03 04:54:55;;;;;;;;;;;;;;;;;;5096917;28;19951;-88
2024/02/03 04:57:21;;;;;;;;;;;;;;;;;;5094613;28;20363;-87
2024/02/03 04:59:47;;;;;;;;;;;;;;;;;;5099387;28;20324;-88
2024/02/03 05:02:13;;;;;;;;;;;;;;;;;;5101589;28;19919;-88
2024/02/03 05:04:39;;;;;;;;;;;;;;;;;;5097157;28;20033;-87
2024/02/03 05:07:05;;;;;;;;;;;;;;;;;;5090473;28;20377;-87
2024/02/03 05:09:30;;;;;;;;;;;;;;;;;;5094421;28;19916;-88
2024/02/03 05:11:56;;;;;;;;;;;;;;;;;;5083899;28;19919;-89
2024/02/03 05:14:22;;;;;;;;;;;;;;;;;;5101245;28;19908;-90
2024/02/03 05:16:48;;;;;;;;;;;;;;;;;;5100232;28;19919;-87
2024/02/03 05:19:14;;;;;;;;;;;;;;;;;;5097432;28;19959;-88
2024/02/03 05:21:40;;;;;;;;;;;;;;;;;;5103308;28;19908;-88
2024/02/03 05:24:05;;;;;;;;;;;;;;;;;;5092093;28;20520;-88
2024/02/03 05:26:31;;;;;;;;;;;;;;;;;;5091800;28;19892;-88
2024/02/03 05:28:57;;;;;;;;;;;;;;;;;;5085460;28;19920;-88
2024/02/03 05:31:23;;;;;;;;;;;;;;;;;;5104238;28;19923;-87
2024/02/03 05:33:49;;;;;;;;;;;;;;;;;;5087200;28;19958;-88
2024/02/03 05:36:15;;;;;;;;;;;;;;;;;;5104211;28;19908;-88
2024/02/03 05:38:41;;;;;;;;;;;;;;;;;;5101610;28;20015;-88
2024/02/03 05:41:07;;;;;;;;;;;;;;;;;;5095464;28;19892;-88
2024/02/03 05:43:33;;;;;;;;;;;;;;;;;;5104077;28;19912;-88
2024/02/03 05:45:59;;;;;;;;;;;;;;;;;;5100207;28;19919;-87
2024/02/03 05:48:25;;;;;;;;;;;;;;;;;;5096331;28;19916;-87
2024/02/03 05:50:51;;;;;;;;;;;;;;;;;;5092009;28;19912;-87
2024/02/03 05:53:17;;;;;;;;;;;;;;;;;;5098289;28;19962;-87
2024/02/03 05:55:43;;;;;;;;;;;;;;;;;;5098735;28;19916;-87
2024/02/03 05:58:09;;;;;;;;;;;;;;;;;;5100965;28;19915;-88
2024/02/03 06:00:35;;;;;;;;;;;;;;;;;;5092249;28;20330;-87
2024/02/03 06:03:01;;;;;;;;;;;;;;;;;;5102883;28;19915;-88
2024/02/03 06:05:27;;;;;;;;;;;;;;;;;;5097730;28;19911;-87
2024/02/03 06:07:53;;;;;;;;;;;;;;;;;;5096416;28;19916;-90
2024/02/03 06:10:19;;;;;;;;;;;;;;;;;;5098849;28;19935;-89
2024/02/03 06:12:44;;;;;;;;;;;;;;;;;;5097998;28;19959;-88
2024/02/03 06:15:10;;;;;;;;;;;;;;;;;;5089786;28;19966;-87
2024/02/03 06:17:36;;;;;;;;;;;;;;;;;;5098899;28;19912;-89
2024/02/03 06:20:02;;;;;;;;;;;;;;;;;;5090356;28;19970;-87
2024/02/03 06:22:28;;;;;;;;;;;;;;;;;;5088093;28;19908;-89
2024/02/03 06:24:54;;;;;;;;;;;;;;;;;;5102160;28;19935;-88
2024/02/03 06:27:20;;;;;;;;;;;;;;;;;;5084094;28;20003;-88
2024/02/03 06:29:46;;;;;;;;;;;;;;;;;;5091750;28;19962;-88
2024/02/03 06:32:11;;;;;;;;;;;;;;;;;;5100321;28;19896;-88
2024/02/03 06:34:38;;;;;;;;;;;;;;;;;;5097648;28;19916;-87
2024/02/03 06:37:04;;;;;;;;;;;;;;;;;;5100095;28;19912;-89
2024/02/03 06:39:29;;;;;;;;;;;;;;;;;;5099945;28;19912;-88
2024/02/03 06:41:55;;;;;;;;;;;;;;;;;;5099936;28;19908;-87
2024/02/03 06:44:21;;;;;;;;;;;;;;;;;;5102044;28;19918;-87
2024/02/03 06:46:47;;;;;;;;;;;;;;;;;;5083838;28;19903;-88
2024/02/03 06:49:13;;;;;;;;;;;;;;;;;;5097554;28;19916;-88
2024/02/03 06:51:39;;;;;;;;;;;;;;;;;;5097164;28;20362;-88
2024/02/03 06:54:05;;;;;;;;;;;;;;;;;;5082588;28;19919;-88
2024/02/03 06:56:31;;;;;;;;;;;;;;;;;;5087527;28;20016;-89
2024/02/03 06:58:57;;;;;;;;;;;;;;;;;;5101370;28;19919;-89
2024/02/03 07:01:25;;;;;;;;;;;;;;;;;;5101040;28;19912;-89
2024/02/03 07:03:51;;;;;;;;;;;;;;;;;;5096528;28;19976;-89
2024/02/03 07:06:17;;;;;;;;;;;;;;;;;;5103387;28;19908;-88
2024/02/03 07:08:43;;;;;;;;;;;;;;;;;;5096860;28;20017;-89
2024/02/03 07:11:10;;;;;;;;;;;;;;;;;;5095758;28;19920;-88
2024/02/03 07:13:36;;;;;;;;;;;;;;;;;;5082079;28;19919;-87
2024/02/03 07:16:03;;;;;;;;;;;;;;;;;;5099345;28;19951;-87
2024/02/03 07:18:29;;;;;;;;;;;;;;;;;;5094735;28;19919;-87
2024/02/03 07:20:55;;;;;;;;;;;;;;;;;;5083945;28;19916;-87
2024/02/03 07:23:21;;;;;;;;;;;;;;;;;;5086922;28;19977;-84
2024/02/03 07:25:47;;;;;;;;;;;;;;;;;;5088215;28;19919;-83
2024/02/03 07:28:12;;;;;;;;;;;;;;;;;;5088934;28;20336;-83
2024/02/03 07:30:38;;;;;;;;;;;;;;;;;;5088757;28;19909;-83
2024/02/03 07:33:08;;;;;;;;;;;;;;;;;;5088560;28;19947;-83
2024/02/03 07:35:34;;;;;;;;;;;;;;;;;;5088292;28;19935;-84
2024/02/03 07:37:59;;;;;;;;;;;;;;;;;;5088594;28;19912;-84
2024/02/03 07:40:25;;;;;;;;;;;;;;;;;;5087250;28;20564;-83
2024/02/03 07:42:51;;;;;;;;;;;;;;;;;;5089567;28;19908;-85
2024/02/03 07:45:17;;;;;;;;;;;;;;;;;;5088085;28;19912;-85
2024/02/03 07:47:43;;;;;;;;;;;;;;;;;;5089032;28;19912;-84
2024/02/03 07:50:09;;;;;;;;;;;;;;;;;;5090325;28;20342;-84
2024/02/03 07:52:35;;;;;;;;;;;;;;;;;;5085114;28;20026;-84
2024/02/03 07:55:03;;;;;;;;;;;;;;;;;;5088524;28;19926;-86
2024/02/03 07:57:28;;;;;;;;;;;;;;;;;;5088892;28;20255;-86
2024/02/03 07:59:54;;;;;;;;;;;;;;;;;;5080541;28;20546;-86
2024/02/03 08:02:20;;;;;;;;;;;;;;;;;;5086703;28;19934;-86
2024/02/03 08:04:46;;;;;;;;;;;;;;;;;;5091816;28;19916;-85
2024/02/03 08:07:12;;;;;;;;;;;;;;;;;;5088079;28;19916;-86
2024/02/03 08:09:38;;;;;;;;;;;;;;;;;;5085106;28;19917;-85
2024/02/03 08:12:04;;;;;;;;;;;;;;;;;;5092983;28;20289;-87
2024/02/03 08:14:30;;;;;;;;;;;;;;;;;;5085366;28;20050;-89
2024/02/03 08:16:56;;;;;;;;;;;;;;;;;;5085079;28;20003;-88
2024/02/03 08:19:22;;;;;;;;;;;;;;;;;;5084790;28;19912;-90
2024/02/03 08:21:48;;;;;;;;;;;;;;;;;;5086619;28;19919;-87
2024/02/03 08:24:14;;;;;;;;;;;;;;;;;;5084418;28;19935;-88
2024/02/03 08:26:40;;;;;;;;;;;;;;;;;;5085613;28;19913;-88
2024/02/03 08:29:06;;;;;;;;;;;;;;;;;;5089560;28;20001;-85
2024/02/03 08:31:32;;;;;;;;;;;;;;;;;;5089627;28;20410;-86
2024/02/03 08:33:57;;;;;;;;;;;;;;;;;;5089340;28;19923;-86
2024/02/03 08:36:23;;;;;;;;;;;;;;;;;;5092405;28;19924;-86
2024/02/03 08:38:49;;;;;;;;;;;;;;;;;;5089567;28;20393;-87
2024/02/03 08:41:15;;;;;;;;;;;;;;;;;;5076860;28;19918;-86
2024/02/03 08:43:41;;;;;;;;;;;;;;;;;;5094014;28;19923;-86
2024/02/03 08:46:07;;;;;;;;;;;;;;;;;;5086392;28;20038;-85
2024/02/03 08:48:33;;;;;;;;;;;;;;;;;;5086406;28;20007;-85
2024/02/03 08:50:59;;;;;;;;;;;;;;;;;;5090879;28;19912;-86
2024/02/03 08:53:25;;;;;;;;;;;;;;;;;;5084600;28;19969;-83
2024/02/03 08:55:51;;;;;;;;;;;;;;;;;;5071503;28;20281;-83
2024/02/03 08:58:16;;;;;;;;;;;;;;;;;;5088992;28;19912;-83
2024/02/03 09:00:43;;;;;;;;;;;;;;;;;;5089091;28;19912;-86
2024/02/03 09:03:09;;;;;;;;;;;;;;;;;;5089417;28;20248;-83
2024/02/03 09:05:35;;;;;;;;;;;;;;;;;;5079183;28;20355;-83
2024/02/03 09:08:00;;;;;;;;;;;;;;;;;;5089465;28;19916;-88
2024/02/03 09:10:26;;;;;;;;;;;;;;;;;;5083874;28;19919;-88
2024/02/03 09:12:52;;;;;;;;;;;;;;;;;;5079298;28;19916;-87
2024/02/03 09:15:18;;;;;;;;;;;;;;;;;;5093885;28;19934;-88
2024/02/03 09:17:44;;;;;;;;;;;;;;;;;;5091616;28;19920;-90
2024/02/03 09:20:10;;;;;;;;;;;;;;;;;;5097003;28;19926;-87
2024/02/03 09:22:35;;;;;;;;;;;;;;;;;;5088236;28;20492;-88
2024/02/03 09:25:01;;;;;;;;;;;;;;;;;;5059802;28;20335;-86
2024/02/03 09:27:27;;;;;;;;;;;;;;;;;;5081540;28;19920;-85
2024/02/03 09:29:53;;;;;;;;;;;;;;;;;;5078735;28;20281;-85
2024/02/03 09:32:19;;;;;;;;;;;;;;;;;;5085842;28;19912;-88
2024/02/03 09:34:45;;;;;;;;;;;;;;;;;;5080144;28;20015;-87
2024/02/03 09:37:11;;;;;;;;;;;;;;;;;;5078345;28;19916;-84
2024/02/03 09:39:37;;;;;;;;;;;;;;;;;;5078341;28;19945;-84
2024/02/03 09:42:03;;;;;;;;;;;;;;;;;;5074944;28;19912;-85
2024/02/03 09:44:28;;;;;;;;;;;;;;;;;;5077125;28;20358;-85
2024/02/03 09:46:54;;;;;;;;;;;;;;;;;;5075806;28;19919;-87
2024/02/03 09:49:20;;;;;;;;;;;;;;;;;;5076185;28;20389;-84
2024/02/03 09:51:46;;;;;;;;;;;;;;;;;;5076578;28;19912;-84
2024/02/03 09:54:12;;;;;;;;;;;;;;;;;;5076988;28;19990;-84
2024/02/03 09:56:38;;;;;;;;;;;;;;;;;;5074398;28;20007;-83
2024/02/03 09:59:04;;;;;;;;;;;;;;;;;;5082341;28;19966;-91
2024/02/03 10:01:30;;;;;;;;;;;;;;;;;;5078739;28;19916;-89
2024/02/03 10:03:56;;;;;;;;;;;;;;;;;;5079799;28;20268;-82
2024/02/03 10:06:22;;;;;;;;;;;;;;;;;;5072945;28;19959;-85
2024/02/03 10:08:48;;;;;;;;;;;;;;;;;;5078239;28;19963;-84
2024/02/03 10:11:14;;;;;;;;;;;;;;;;;;5079901;28;19916;-90
2024/02/03 10:13:40;;;;;;;;;;;;;;;;;;5077954;28;19958;-89
2024/02/03 10:16:07;;;;;;;;;;;;;;;;;;5074549;28;19915;-91
2024/02/03 10:18:33;;;;;;;;;;;;;;;;;;5076476;28;19912;-85
2024/02/03 10:20:59;;;;;;;;;;;;;;;;;;5074093;28;19969;-85
2024/02/03 10:23:25;;;;;;;;;;;;;;;;;;5074542;28;19966;-84
2024/02/03 10:25:51;;;;;;;;;;;;;;;;;;5090268;28;19951;-86
2024/02/03 10:28:18;;;;;;;;;;;;;;;;;;5090751;28;19912;-86
2024/02/03 10:30:44;;;;;;;;;;;;;;;;;;5091214;28;19919;-86
2024/02/03 10:33:10;;;;;;;;;;;;;;;;;;5068930;28;20390;-85
2024/02/03 10:35:35;;;;;;;;;;;;;;;;;;5088520;28;19915;-87
2024/02/03 10:38:01;;;;;;;;;;;;;;;;;;5093771;28;20003;-84
2024/02/03 10:40:27;;;;;;;;;;;;;;;;;;5089200;28;19908;-84
2024/02/03 10:42:53;;;;;;;;;;;;;;;;;;5091731;28;19912;-85
2024/02/03 10:45:19;;;;;;;;;;;;;;;;;;5091163;28;19912;-82
2024/02/03 10:47:45;;;;;;;;;;;;;;;;;;5088707;28;19980;-86
2024/02/03 10:50:11;;;;;;;;;;;;;;;;;;5088684;28;20386;-84
2024/02/03 10:52:37;;;;;;;;;;;;;;;;;;5078608;28;19920;-85
2024/02/03 10:55:03;;;;;;;;;;;;;;;;;;5086029;28;19916;-85
2024/02/03 10:57:28;;;;;;;;;;;;;;;;;;5085013;28;20321;-84
2024/02/03 10:59:54;;;;;;;;;;;;;;;;;;5087078;28;19912;-85
2024/02/03 11:02:20;;;;;;;;;;;;;;;;;;5084851;28;20052;-83
2024/02/03 11:04:46;;;;;;;;;;;;;;;;;;5076320;28;19957;-84
2024/02/03 11:07:12;;;;;;;;;;;;;;;;;;5088406;28;19923;-85
2024/02/03 11:09:38;;;;;;;;;;;;;;;;;;5086504;28;20383;-84
2024/02/03 11:12:04;;;;;;;;;;;;;;;;;;5077491;28;20469;-84
2024/02/03 11:14:31;;;;;;;;;;;;;;;;;;5088643;28;19915;-85
2024/02/03 11:17:03;;;;;;;;;;;;;;;;;;5088593;28;19985;-85
2024/02/03 11:19:28;;;;;;;;;;;;;;;;;;5087348;28;20275;-84
2024/02/03 11:21:54;;;;;;;;;;;;;;;;;;5099960;28;19912;-85
2024/02/03 11:24:20;;;;;;;;;;;;;;;;;;5080714;28;19928;-84
2024/02/03 11:26:46;;;;;;;;;;;;;;;;;;5091669;28;19919;-87
2024/02/03 11:29:12;;;;;;;;;;;;;;;;;;5084732;28;19926;-87
2024/02/03 11:31:38;;;;;;;;;;;;;;;;;;5084356;28;19924;-86
2024/02/03 11:34:04;;;;;;;;;;;;;;;;;;5085159;28;19923;-88
2024/02/03 11:36:30;;;;;;;;;;;;;;;;;;5088209;28;19913;-85
2024/02/03 11:38:56;;;;;;;;;;;;;;;;;;5086960;28;19908;-88
2024/02/03 11:41:21;;;;;;;;;;;;;;;;;;5071453;28;19912;-88
2024/02/03 11:43:49;;;;;;;;;;;;;;;;;;5076549;28;19924;-89
2024/02/03 11:46:14;;;;;;;;;;;;;;;;;;5064752;28;20614;-88
2024/02/03 11:48:44;;;;;;;;;;;;;;;;;;5085323;28;19924;-87
2024/02/03 11:51:10;;;;;;;;;;;;;;;;;;5084384;28;20027;-86
2024/02/03 11:53:36;;;;;;;;;;;;;;;;;;5081125;28;20473;-88
2024/02/03 11:56:02;;;;;;;;;;;;;;;;;;5082050;28;20515;-92
2024/02/03 11:58:28;;;;;;;;;;;;;;;;;;5058949;28;19920;-89
2024/02/03 12:00:53;;;;;;;;;;;;;;;;;;5082696;28;19947;-90
2024/02/03 12:03:19;;;;;;;;;;;;;;;;;;5090510;28;19923;-87
2024/02/03 12:05:45;;;;;;;;;;;;;;;;;;5073749;28;19916;-88
2024/02/03 12:08:11;;;;;;;;;;;;;;;;;;5086963;28;19954;-87
2024/02/03 12:10:37;;;;;;;;;;;;;;;;;;5091988;28;20427;-88
2024/02/03 12:13:03;;;;;;;;;;;;;;;;;;5088306;28;20431;-88
2024/02/03 12:15:29;;;;;;;;;;;;;;;;;;5095040;28;19908;-88
2024/02/03 12:17:54;;;;;;;;;;;;;;;;;;5094287;28;19908;-87
2024/02/03 12:20:22;;;;;;;;;;;;;;;;;;5095038;28;19908;-88
2024/02/03 12:22:47;;;;;;;;;;;;;;;;;;5105294;28;20354;-87
2024/02/03 12:25:13;;;;;;;;;;;;;;;;;;5102803;28;19981;-88
2024/02/03 12:27:39;;;;;;;;;;;;;;;;;;5094321;28;20396;-87
2024/02/03 12:30:06;;;;;;;;;;;;;;;;;;5095244;28;19912;-88
2024/02/03 12:32:32;;;;;;;;;;;;;;;;;;5093251;28;19954;-89
2024/02/03 12:34:58;;;;;;;;;;;;;;;;;;5100851;28;20282;-87
2024/02/03 12:37:24;;;;;;;;;;;;;;;;;;5096012;28;19919;-88
2024/02/03 12:39:50;;;;;;;;;;;;;;;;;;5079617;28;19912;-87
2024/02/03 12:42:16;;;;;;;;;;;;;;;;;;5093431;28;20352;-89
2024/02/03 12:44:42;;;;;;;;;;;;;;;;;;5098602;28;19912;-87
2024/02/03 12:47:08;;;;;;;;;;;;;;;;;;5093406;28;19916;-87
2024/02/03 12:49:34;;;;;;;;;;;;;;;;;;5101697;28;19919;-87
2024/02/03 12:52:00;;;;;;;;;;;;;;;;;;5092014;28;20045;-87
2024/02/03 12:54:25;;;;;;;;;;;;;;;;;;5095023;28;19908;-87
2024/02/03 12:56:51;;;;;;;;;;;;;;;;;;5093110;28;19916;-89
2024/02/03 12:59:17;;;;;;;;;;;;;;;;;;5097217;28;20425;-88
2024/02/03 13:01:43;;;;;;;;;;;;;;;;;;5100040;28;19992;-88
2024/02/03 13:04:09;;;;;;;;;;;;;;;;;;5095286;28;19912;-88
2024/02/03 13:06:35;;;;;;;;;;;;;;;;;;5058873;28;20012;-88
2024/02/03 13:09:00;;;;;;;;;;;;;;;;;;5099212;28;20396;-87
2024/02/03 13:11:26;;;;;;;;;;;;;;;;;;5092487;28;19908;-88
2024/02/03 13:13:52;;;;;;;;;;;;;;;;;;5091722;28;19961;-87
2024/02/03 13:16:18;;;;;;;;;;;;;;;;;;5091822;28;19954;-86
2024/02/03 13:18:44;;;;;;;;;;;;;;;;;;5091560;28;19916;-88
2024/02/03 13:21:10;;;;;;;;;;;;;;;;;;5091519;28;20382;-86
2024/02/03 13:23:36;;;;;;;;;;;;;;;;;;5090902;28;19962;-86
2024/02/03 13:26:02;;;;;;;;;;;;;;;;;;5090985;28;19915;-86
2024/02/03 13:28:27;;;;;;;;;;;;;;;;;;5091401;28;20438;-86
2024/02/03 13:30:53;;;;;;;;;;;;;;;;;;5091256;28;20346;-87
2024/02/03 13:33:19;;;;;;;;;;;;;;;;;;5093580;28;19939;-86
2024/02/03 13:35:45;;;;;;;;;;;;;;;;;;5090112;28;20010;-86
2024/02/03 13:38:11;;;;;;;;;;;;;;;;;;5083025;28;19942;-86
2024/02/03 13:40:37;;;;;;;;;;;;;;;;;;5091427;28;20780;-86
2024/02/03 13:43:03;;;;;;;;;;;;;;;;;;5104091;28;19916;-88
2024/02/03 13:45:29;;;;;;;;;;;;;;;;;;5090711;28;19919;-87
2024/02/03 13:47:55;;;;;;;;;;;;;;;;;;5090837;28;19919;-85
2024/02/03 13:50:21;;;;;;;;;;;;;;;;;;5090750;28;19916;-86
2024/02/03 13:52:47;;;;;;;;;;;;;;;;;;5077095;28;19954;-87
2024/02/03 13:55:13;;;;;;;;;;;;;;;;;;5091644;28;19969;-86
2024/02/03 13:57:39;;;;;;;;;;;;;;;;;;5099896;28;20625;-84
2024/02/03 14:00:06;;;;;;;;;;;;;;;;;;5089469;28;19920;-86
2024/02/03 14:02:32;;;;;;;;;;;;;;;;;;5089987;28;19912;-87
2024/02/03 14:04:58;;;;;;;;;;;;;;;;;;5090855;28;20453;-87
2024/02/03 14:07:24;;;;;;;;;;;;;;;;;;5090343;28;20036;-87
2024/02/03 14:09:50;;;;;;;;;;;;;;;;;;5089676;28;19916;-86
2024/02/03 14:12:15;;;;;;;;;;;;;;;;;;5083204;28;19908;-87
2024/02/03 14:14:41;;;;;;;;;;;;;;;;;;5093302;28;19960;-88
2024/02/03 14:17:07;;;;;;;;;;;;;;;;;;5092158;28;19908;-87
2024/02/03 14:19:33;;;;;;;;;;;;;;;;;;5090700;28;20465;-87
2024/02/03 14:21:59;;;;;;;;;;;;;;;;;;5091545;28;19916;-87
2024/02/03 14:24:25;;;;;;;;;;;;;;;;;;5089787;28;19930;-86
2024/02/03 14:26:50;;;;;;;;;;;;;;;;;;5090171;28;19955;-87
2024/02/03 14:29:17;;;;;;;;;;;;;;;;;;5093282;28;19931;-85
2024/02/03 14:31:45;;;;;;;;;;;;;;;;;;5089497;28;21274;-86
2024/02/03 14:34:11;;;;;;;;;;;;;;;;;;5089992;28;20029;-86
2024/02/03 14:36:36;;;;;;;;;;;;;;;;;;5089271;28;19916;-87
2024/02/03 14:39:02;;;;;;;;;;;;;;;;;;5089821;28;19919;-87
2024/02/03 14:41:28;;;;;;;;;;;;;;;;;;5089444;28;20010;-86
2024/02/03 14:43:54;;;;;;;;;;;;;;;;;;5085808;28;19921;-85
2024/02/03 14:46:20;;;;;;;;;;;;;;;;;;5089597;28;20303;-86
2024/02/03 14:48:46;;;;;;;;;;;;;;;;;;5088540;28;19916;-86
2024/02/03 14:51:12;;;;;;;;;;;;;;;;;;5089769;28;20003;-86
2024/02/03 14:53:39;;;;;;;;;;;;;;;;;;5088183;28;19918;-85
2024/02/03 14:56:04;;;;;;;;;;;;;;;;;;5083842;28;19931;-85
2024/02/03 14:58:30;;;;;;;;;;;;;;;;;;5087525;28;19924;-86
2024/02/03 15:00:56;;;;;;;;;;;;;;;;;;5083911;28;19959;-85
2024/02/03 15:03:22;;;;;;;;;;;;;;;;;;5087998;28;19916;-85
2024/02/03 15:05:48;;;;;;;;;;;;;;;;;;5088221;28;19986;-85
2024/02/03 15:08:14;;;;;;;;;;;;;;;;;;5084793;28;20306;-86
2024/02/03 15:10:40;;;;;;;;;;;;;;;;;;5090694;28;19923;-86
2024/02/03 15:13:06;;;;;;;;;;;;;;;;;;5085620;28;19912;-86
2024/02/03 15:15:31;;;;;;;;;;;;;;;;;;5088833;28;19916;-84
2024/02/03 15:17:59;;;;;;;;;;;;;;;;;;5083087;28;19915;-85
2024/02/03 15:20:24;;;;;;;;;;;;;;;;;;5088317;28;19920;-85
2024/02/03 15:22:50;;;;;;;;;;;;;;;;;;5089647;28;19912;-86
2024/02/03 15:25:16;;;;;;;;;;;;;;;;;;5089088;28;19927;-85
2024/02/03 15:27:42;;;;;;;;;;;;;;;;;;5087057;28;19947;-86
2024/02/03 15:30:08;;;;;;;;;;;;;;;;;;5087918;28;19954;-84
2024/02/03 15:32:34;;;;;;;;;;;;;;;;;;5088663;28;19916;-85
2024/02/03 15:34:59;;;;;;;;;;;;;;;;;;5087630;28;19947;-86
2024/02/03 15:37:25;;;;;;;;;;;;;;;;;;5086776;28;19912;-87
2024/02/03 15:39:51;;;;;;;;;;;;;;;;;;5087937;28;19958;-85
2024/02/03 15:42:19;;;;;;;;;;;;;;;;;;5062800;28;20003;-84
2024/02/03 15:44:45;;;;;;;;;;;;;;;;;;5090151;28;19916;-85
2024/02/03 15:47:12;;;;;;;;;;;;;;;;;;5089499;28;19969;-86
2024/02/03 15:49:38;;;;;;;;;;;;;;;;;;5089659;28;19917;-85
2024/02/03 15:52:04;;;;;;;;;;;;;;;;;;5092352;28;19922;-85
2024/02/03 15:54:29;;;;;;;;;;;;;;;;;;5091811;28;20010;-86
2024/02/03 15:56:55;;;;;;;;;;;;;;;;;;5082983;28;19916;-85
2024/02/03 15:59:21;;;;;;;;;;;;;;;;;;5092483;28;20049;-85
2024/02/03 16:01:47;;;;;;;;;;;;;;;;;;5087801;28;19912;-86
2024/02/03 16:04:13;;;;;;;;;;;;;;;;;;5087795;28;19912;-84
2024/02/03 16:06:39;;;;;;;;;;;;;;;;;;5103462;28;19912;-86
2024/02/03 16:09:04;;;;;;;;;;;;;;;;;;5098552;28;19943;-88
2024/02/03 16:11:30;;;;;;;;;;;;;;;;;;5100503;28;19920;-88
2024/02/03 16:13:56;;;;;;;;;;;;;;;;;;5090780;28;19966;-94
2024/02/03 16:16:22;;;;;;;;;;;;;;;;;;5075153;28;19960;-90
2024/02/03 16:18:48;;;;;;;;;;;;;;;;;;5094337;28;20370;-90
2024/02/03 16:21:14;;;;;;;;;;;;;;;;;;5089716;28;19949;-85
2024/02/03 16:23:40;;;;;;;;;;;;;;;;;;5093776;28;19916;-87
2024/02/03 16:26:06;;;;;;;;;;;;;;;;;;5091339;28;19920;-89
2024/02/03 16:28:32;;;;;;;;;;;;;;;;;;5099138;28;20387;-89
2024/02/03 16:30:58;;;;;;;;;;;;;;;;;;5094467;28;20002;-90
2024/02/03 16:33:24;;;;;;;;;;;;;;;;;;5096565;28;19993;-91
2024/02/03 16:35:50;;;;;;;;;;;;;;;;;;5096214;28;19923;-91